Time;durP1;ratioP1;P1;durP2;ratioP2;P2;SDS_P1;SDS_P2;PMS_P1;PMS_P2;Temp;Humidity;BMP_temperature;BMP_pressure;BME280_temperature;BME280_humidity;BME280_pressure;Samples;Min_cycle;Max_cycle;Signal;HPM_P1;HPM_P2
2021/12/15 00:00:40;;;;;;;8.26;7.56;;;;;;;4.40;70.31;101298.61;461991;112;930554;-75
2021/12/15 00:01:46;;;;;;;8.47;7.67;;;;;;;4.36;70.49;101288.25;460964;111;923259;-77
2021/12/15 00:02:51;;;;;;;7.87;7.13;;;;;;;4.32;70.61;101290.44;460502;113;922627;-76
2021/12/15 00:03:55;;;;;;;8.50;7.75;;;;;;;4.28;70.50;101296.30;461772;112;922545;-76
2021/12/15 00:04:58;;;;;;;7.51;6.91;;;;;;;4.22;70.65;101288.83;460822;112;922710;-75
2021/12/15 00:06:10;;;;;;;8.51;7.71;;;;;;;4.18;70.94;101285.61;460980;113;922858;-76
2021/12/15 00:07:10;;;;;;;8.27;7.51;;;;;;;4.18;71.12;101285.61;461557;113;923482;-75
2021/12/15 00:08:14;;;;;;;7.22;6.62;;;;;;;4.17;71.17;101284.77;461718;112;922737;-76
2021/12/15 00:09:17;;;;;;;7.65;6.92;;;;;;;4.17;71.08;101281.20;461208;111;930647;-75
2021/12/15 00:10:23;;;;;;;7.52;6.69;;;;;;;4.13;71.16;101277.14;462710;112;922537;-75
2021/12/15 00:11:37;;;;;;;8.19;7.41;;;;;;;4.10;71.26;101269.34;461562;113;923425;-75
2021/12/15 00:12:41;;;;;;;8.28;7.01;;;;;;;4.09;71.33;101271.19;462266;111;922612;-74
2021/12/15 00:13:46;;;;;;;7.73;7.03;;;;;;;4.08;71.52;101269.48;462847;112;922799;-75
2021/12/15 00:14:49;;;;;;;7.60;6.85;;;;;;;4.08;71.52;101272.18;462626;113;928859;-75
2021/12/15 00:15:53;;;;;;;7.08;6.46;;;;;;;4.09;71.62;101271.19;463770;113;922865;-75
2021/12/15 00:16:56;;;;;;;6.84;6.25;;;;;;;4.10;71.60;101266.64;460485;111;922723;-75
2021/12/15 00:18:00;;;;;;;7.47;6.78;;;;;;;4.09;71.55;101264.94;460844;113;930862;-75
2021/12/15 00:19:04;;;;;;;6.55;5.49;;;;;;;4.08;71.49;101269.48;461243;111;930564;-75
2021/12/15 00:20:12;;;;;;;6.48;5.91;;;;;;;4.06;71.54;101268.81;461388;111;930588;-75
2021/12/15 00:21:19;;;;;;;6.28;5.78;;;;;;;4.05;71.56;101271.66;460418;112;922553;-76
2021/12/15 00:22:22;;;;;;;6.27;5.67;;;;;;;4.03;71.63;101270.95;460905;113;922721;-75
2021/12/15 00:23:26;;;;;;;5.91;5.46;;;;;;;4.00;71.53;101263.19;460504;112;923078;-75
2021/12/15 00:24:30;;;;;;;6.59;5.72;;;;;;;3.97;71.63;101266.20;456269;112;930615;-76
2021/12/15 00:25:37;;;;;;;6.69;5.98;;;;;;;3.94;71.71;101266.50;457971;113;922635;-76
2021/12/15 00:26:40;;;;;;;7.10;6.50;;;;;;;3.93;71.82;101259.41;457475;113;923106;-76
2021/12/15 00:27:44;;;;;;;5.45;4.95;;;;;;;3.91;71.84;101253.34;457769;114;922610;-76
2021/12/15 00:28:49;;;;;;;5.72;5.28;;;;;;;3.90;72.02;101263.28;458138;114;930913;-75
2021/12/15 00:29:53;;;;;;;5.26;4.77;;;;;;;3.92;72.12;101263.95;457976;114;930531;-76
2021/12/15 00:30:57;;;;;;;5.84;5.28;;;;;;;3.94;72.11;101253.02;457384;112;922942;-75
2021/12/15 00:32:04;;;;;;;5.66;5.08;;;;;;;3.95;72.06;101254.72;458095;114;922616;-74
2021/12/15 00:33:07;;;;;;;4.73;4.32;;;;;;;3.91;71.87;101246.09;457522;113;930998;-75
2021/12/15 00:34:11;;;;;;;4.85;4.37;;;;;;;3.86;71.92;101242.17;457868;112;922533;-75
2021/12/15 00:35:16;;;;;;;4.80;4.40;;;;;;;3.81;72.04;101244.45;458270;114;922616;-75
2021/12/15 00:36:21;;;;;;;4.68;4.28;;;;;;;3.80;72.22;101250.87;458518;114;922716;-76
2021/12/15 00:37:25;;;;;;;4.08;3.74;;;;;;;3.78;72.35;101256.41;458005;113;923035;-76
2021/12/15 00:38:29;;;;;;;4.68;4.28;;;;;;;3.80;72.44;101246.33;457548;113;922685;-76
2021/12/15 00:39:33;;;;;;;4.81;4.41;;;;;;;3.82;72.53;101251.55;457839;114;922622;-75
2021/12/15 00:40:37;;;;;;;5.00;4.44;;;;;;;3.84;72.51;101252.25;456072;114;923273;-75
2021/12/15 00:41:41;;;;;;;4.57;4.11;;;;;;;3.84;72.30;101249.55;457005;113;922486;-75
2021/12/15 00:42:46;;;;;;;4.59;4.21;;;;;;;3.82;72.42;101240.76;456960;113;923233;-75
2021/12/15 00:43:51;;;;;;;4.88;4.48;;;;;;;3.82;72.48;101240.76;456856;113;922888;-75
2021/12/15 00:44:54;;;;;;;4.52;4.15;;;;;;;3.81;72.34;101245.30;458319;114;922770;-74
2021/12/15 00:45:58;;;;;;;4.47;4.07;;;;;;;3.79;72.33;101252.72;456358;113;930467;-75
2021/12/15 00:47:03;;;;;;;5.02;4.62;;;;;;;3.75;72.42;101240.52;442757;117;923064;-76
2021/12/15 00:48:08;;;;;;;5.02;4.61;;;;;;;3.71;72.33;101250.78;441307;119;922855;-76
2021/12/15 00:49:12;;;;;;;4.40;4.00;;;;;;;3.63;72.40;101241.78;439669;119;922718;-76
2021/12/15 00:50:20;;;;;;;4.52;4.15;;;;;;;3.57;72.55;101245.94;448253;116;930624;-75
2021/12/15 00:51:23;;;;;;;4.53;4.13;;;;;;;3.54;72.88;101240.84;442685;118;922676;-75
2021/12/15 00:52:27;;;;;;;4.77;4.34;;;;;;;3.57;73.11;101235.16;441466;117;922651;-76
2021/12/15 00:53:33;;;;;;;5.08;4.58;;;;;;;3.62;73.18;101238.23;448359;117;922600;-76
2021/12/15 00:54:38;;;;;;;5.32;4.56;;;;;;;3.64;72.99;101222.73;437131;120;922600;-75
2021/12/15 00:55:43;;;;;;;4.60;4.20;;;;;;;3.62;72.87;101230.15;444588;116;922791;-76
2021/12/15 00:56:46;;;;;;;4.48;4.09;;;;;;;3.61;73.02;101238.38;443443;119;922673;-75
2021/12/15 00:57:50;;;;;;;4.42;4.03;;;;;;;3.62;73.00;101232.84;447719;116;922515;-75
2021/12/15 00:58:54;;;;;;;4.14;3.84;;;;;;;3.60;73.06;101232.14;443198;118;930631;-75
2021/12/15 00:59:58;;;;;;;4.76;4.36;;;;;;;3.62;73.13;101221.20;443926;116;922654;-76
2021/12/15 01:01:03;;;;;;;4.45;4.06;;;;;;;3.64;73.10;101238.06;443980;116;923098;-76
2021/12/15 01:02:09;;;;;;;4.97;4.56;;;;;;;3.65;73.21;101237.06;444191;116;923094;-76
2021/12/15 01:03:13;;;;;;;4.51;4.10;;;;;;;3.66;73.19;101245.01;443497;116;923229;-76
2021/12/15 01:04:19;;;;;;;4.31;3.94;;;;;;;3.70;73.27;101249.09;441298;117;923210;-76
2021/12/15 01:05:26;;;;;;;4.27;3.88;;;;;;;3.73;73.20;101248.80;441731;117;930906;-77
2021/12/15 01:06:30;;;;;;;4.38;3.99;;;;;;;3.78;73.20;101245.62;442364;117;923031;-75
2021/12/15 01:07:36;;;;;;;4.75;4.34;;;;;;;3.82;73.04;101232.66;442652;117;922627;-76
2021/12/15 01:08:45;;;;;;;4.71;4.31;;;;;;;3.83;73.00;101232.52;442059;117;922890;-76
2021/12/15 01:09:55;;;;;;;3.76;3.46;;;;;;;3.85;73.02;101226.98;441835;119;922697;-76
2021/12/15 01:12:36;;;;;;;3.79;3.49;;;;;;;3.93;72.99;101229.73;424724;123;923823;-74
2021/12/15 01:20:43;;;;;;;3.94;3.58;;;;;;;4.03;72.50;101231.33;441691;119;922642;-74
2021/12/15 01:21:46;;;;;;;3.49;3.26;;;;;;;4.05;72.53;101231.18;431227;119;922742;-75
2021/12/15 01:22:53;;;;;;;3.61;3.31;;;;;;;4.06;72.56;101232.88;441906;117;923193;-75
2021/12/15 01:23:56;;;;;;;4.03;3.73;;;;;;;4.07;72.49;101240.83;442515;117;931341;-76
2021/12/15 01:25:06;;;;;;;3.51;3.21;;;;;;;4.10;72.45;101240.50;448159;117;922617;-74
2021/12/15 01:26:13;;;;;;;3.53;3.23;;;;;;;4.12;72.41;101245.75;447487;115;922851;-76
2021/12/15 01:27:17;;;;;;;3.46;3.17;;;;;;;4.15;72.35;101246.27;448127;116;922615;-76
2021/12/15 01:28:23;;;;;;;3.82;3.50;;;;;;;4.19;72.25;101252.19;448522;117;922585;-76
2021/12/15 01:29:26;;;;;;;3.92;3.62;;;;;;;4.22;72.14;101251.05;447195;117;930698;-75
2021/12/15 01:30:33;;;;;;;3.81;3.51;;;;;;;4.24;72.08;101249.89;448611;115;922610;-75
2021/12/15 01:31:37;;;;;;;4.53;3.78;;;;;;;4.26;72.00;101234.38;447651;117;922879;-76
2021/12/15 01:32:41;;;;;;;6.14;4.02;;;;;;;4.29;71.89;101236.77;448592;116;923561;-76
2021/12/15 01:33:44;;;;;;;4.03;3.71;;;;;;;4.31;71.80;101242.84;448821;117;922666;-76
2021/12/15 01:34:48;;;;;;;4.15;3.75;;;;;;;4.31;71.65;101240.14;449205;115;930917;-76
2021/12/15 01:35:54;;;;;;;4.11;3.74;;;;;;;4.32;71.62;101233.74;448252;117;930525;-76
2021/12/15 01:36:59;;;;;;;3.63;3.33;;;;;;;4.34;71.63;101225.49;447237;116;922612;-75
2021/12/15 01:38:03;;;;;;;4.90;4.50;;;;;;;4.36;71.62;101218.91;447163;117;923030;-75
2021/12/15 01:39:07;;;;;;;4.28;3.89;;;;;;;4.38;71.49;101216.91;447794;115;930530;-75
2021/12/15 01:40:22;;;;;;;4.63;4.23;;;;;;;4.39;71.39;101221.31;448079;116;922645;-75
2021/12/15 01:41:23;;;;;;;4.16;3.77;;;;;;;4.40;71.30;101225.71;447864;117;922674;-75
2021/12/15 01:42:31;;;;;;;3.68;3.24;;;;;;;4.41;71.29;101226.56;448547;117;922817;-75
2021/12/15 01:43:49;;;;;;;3.83;3.52;;;;;;;4.42;71.23;101231.78;447533;115;922789;-75
2021/12/15 01:47:25;;;;;;;4.18;3.80;;;;;;;4.48;71.08;101224.89;448084;117;923153;-76
2021/12/15 01:48:29;;;;;;;3.83;3.47;;;;;;;4.48;71.01;101225.74;447568;115;922664;-76
2021/12/15 01:49:44;;;;;;;7.49;3.96;;;;;;;4.48;70.94;101224.89;448390;116;922976;-75
2021/12/15 01:50:50;;;;;;;4.48;4.08;;;;;;;4.48;70.93;101227.59;447904;115;922573;-76
2021/12/15 01:51:56;;;;;;;4.13;3.73;;;;;;;4.48;70.82;101223.05;448765;117;922727;-75
2021/12/15 01:53:00;;;;;;;3.67;3.31;;;;;;;4.49;70.77;101223.89;439964;118;923283;-75
2021/12/15 01:54:04;;;;;;;4.23;3.87;;;;;;;4.48;70.67;101227.59;440044;118;922605;-75
2021/12/15 01:55:11;;;;;;;4.19;3.79;;;;;;;4.47;70.60;101234.84;448317;117;930603;-75
2021/12/15 01:56:15;;;;;;;3.97;3.56;;;;;;;4.46;70.63;101238.58;448784;117;922699;-75
2021/12/15 01:57:21;;;;;;;3.78;3.48;;;;;;;4.46;70.67;101238.58;448919;115;922551;-75
2021/12/15 01:58:25;;;;;;;3.68;3.28;;;;;;;4.48;70.64;101241.09;446564;117;930575;-75
2021/12/15 01:59:30;;;;;;;3.79;3.45;;;;;;;4.48;70.61;101244.64;448583;117;922951;-75
2021/12/15 02:00:40;;;;;;;4.46;4.06;;;;;;;4.49;70.59;101237.39;447081;117;922665;-75
2021/12/15 02:01:44;;;;;;;3.98;3.10;;;;;;;4.49;70.57;101232.84;447358;115;922651;-75
2021/12/15 02:02:50;;;;;;;4.22;3.59;;;;;;;4.51;70.50;101232.69;447421;116;923135;-76
2021/12/15 02:03:54;;;;;;;3.27;3.01;;;;;;;4.52;70.47;101235.20;446514;116;922650;-75
2021/12/15 02:04:59;;;;;;;3.86;3.53;;;;;;;4.52;70.45;101232.51;445231;118;922660;-75
2021/12/15 02:06:06;;;;;;;3.58;3.16;;;;;;;4.54;70.45;101235.06;446155;118;922646;-75
2021/12/15 02:07:13;;;;;;;3.44;3.14;;;;;;;4.55;70.27;101244.86;450363;115;930629;-74
2021/12/15 02:08:16;;;;;;;3.56;3.26;;;;;;;4.53;70.18;101244.16;449152;114;922768;-74
2021/12/15 02:09:41;;;;;;;3.43;3.14;;;;;;;4.53;70.18;101241.46;450587;116;923168;-74
2021/12/15 02:10:31;;;;;;;3.13;2.83;;;;;;;4.53;70.25;101246.86;443139;116;922645;-74
2021/12/15 02:11:34;;;;;;;3.36;2.90;;;;;;;4.53;70.24;101250.41;445011;117;922789;-74
2021/12/15 02:12:41;;;;;;;3.73;3.43;;;;;;;4.54;70.24;101246.71;440272;118;923148;-74
2021/12/15 02:13:45;;;;;;;3.64;3.33;;;;;;;4.53;70.23;101250.41;437780;120;922778;-74
2021/12/15 02:14:48;;;;;;;3.46;3.16;;;;;;;4.55;70.29;101242.16;443432;116;923101;-75
2021/12/15 02:15:55;;;;;;;3.69;3.39;;;;;;;4.56;70.26;101236.61;450563;115;924983;-76
2021/12/15 02:16:58;;;;;;;3.07;2.81;;;;;;;4.57;70.28;101238.31;451197;116;922934;-76
2021/12/15 02:18:04;;;;;;;3.95;3.62;;;;;;;4.59;70.26;101241.67;451161;116;922728;-75
2021/12/15 02:19:08;;;;;;;4.19;3.73;;;;;;;4.60;70.22;101235.27;450806;114;922496;-74
2021/12/15 02:20:14;;;;;;;4.22;3.89;;;;;;;4.61;70.13;101234.27;451207;115;922609;-75
2021/12/15 02:21:21;;;;;;;4.40;3.99;;;;;;;4.61;70.02;101236.13;448658;115;922677;-75
2021/12/15 02:22:27;;;;;;;4.75;4.25;;;;;;;4.61;69.97;101246.92;448430;116;922707;-75
2021/12/15 02:23:37;;;;;;;4.23;3.83;;;;;;;4.58;69.90;101245.38;449441;114;922514;-76
2021/12/15 02:24:39;;;;;;;4.25;3.81;;;;;;;4.57;69.92;101249.11;447157;116;922610;-75
2021/12/15 02:25:44;;;;;;;4.24;3.36;;;;;;;4.55;69.84;101237.61;440997;119;922637;-75
2021/12/15 02:26:52;;;;;;;4.19;3.78;;;;;;;4.53;69.90;101236.91;440851;119;922605;-75
2021/12/15 02:27:53;;;;;;;3.41;3.08;;;;;;;4.53;69.96;101253.11;448846;115;922586;-75
2021/12/15 02:28:59;;;;;;;3.36;3.00;;;;;;;4.53;69.96;101252.27;442907;117;923157;-74
2021/12/15 02:31:40;;;;;;;;;;;;;;;4.53;69.98;101250.41;421866;124;922729;-74
2021/12/15 02:32:54;;;;;;;3.26;2.83;;;;;;;4.54;70.01;101254.81;442495;118;922431;-75
2021/12/15 02:34:44;;;;;;;3.46;3.08;;;;;;;4.54;70.01;101260.21;441467;117;923470;-75
2021/12/15 02:37:35;;;;;;;3.61;3.08;;;;;;;4.52;70.08;101253.30;437721;117;922701;-75
2021/12/15 02:38:42;;;;;;;3.91;3.54;;;;;;;4.54;70.14;101253.97;440944;117;922755;-75
2021/12/15 02:39:53;;;;;;;3.31;3.01;;;;;;;4.55;70.04;101266.47;442230;118;923087;-76
2021/12/15 02:41:05;;;;;;;3.09;2.84;;;;;;;4.56;70.12;101266.31;442528;117;923006;-75
2021/12/15 02:42:01;;;;;;;3.43;3.13;;;;;;;4.58;70.10;101269.69;442754;117;922684;-75
2021/12/15 02:43:06;;;;;;;3.46;3.17;;;;;;;4.60;70.01;101264.98;442607;118;923000;-76
2021/12/15 02:44:16;;;;;;;3.16;2.89;;;;;;;4.59;70.01;101268.69;443295;118;930625;-75
2021/12/15 02:45:24;;;;;;;3.58;3.28;;;;;;;4.61;70.00;101269.38;442894;117;922921;-75
2021/12/15 02:46:30;;;;;;;4.13;3.72;;;;;;;4.63;69.98;101268.38;443079;118;922916;-75
2021/12/15 02:47:34;;;;;;;3.71;3.32;;;;;;;4.64;69.94;101265.50;442845;116;922545;-75
2021/12/15 02:48:37;;;;;;;3.64;3.29;;;;;;;4.66;69.90;101273.45;442605;118;922602;-75
2021/12/15 02:49:41;;;;;;;3.74;3.42;;;;;;;4.68;69.94;101268.75;442609;116;923110;-75
2021/12/15 02:50:45;;;;;;;4.05;3.59;;;;;;;4.68;69.94;101268.75;442666;117;930753;-75
2021/12/15 02:51:51;;;;;;;3.94;3.64;;;;;;;4.69;69.81;101273.97;442657;117;923154;-75
2021/12/15 02:52:58;;;;;;;3.68;3.38;;;;;;;4.69;69.76;101273.97;443049;117;931176;-75
2021/12/15 02:54:03;;;;;;;3.43;3.13;;;;;;;4.70;69.76;101266.71;443941;116;922704;-76
2021/12/15 02:55:07;;;;;;;4.13;3.77;;;;;;;4.72;69.74;101272.81;443879;118;922669;-75
2021/12/15 02:56:14;;;;;;;4.60;4.19;;;;;;;4.74;69.70;101276.22;443231;117;922553;-74
2021/12/15 02:57:17;;;;;;;4.04;3.66;;;;;;;4.75;69.69;101275.18;443223;116;922968;-74
2021/12/15 02:58:22;;;;;;;3.67;3.35;;;;;;;4.77;69.66;101281.28;441963;116;922927;-75
2021/12/15 02:59:32;;;;;;;3.81;3.51;;;;;;;4.78;69.61;101274.88;442538;117;922837;-75
2021/12/15 03:00:51;;;;;;;4.03;3.40;;;;;;;4.80;69.59;101278.25;441964;118;930658;-75
2021/12/15 03:04:45;;;;;;;4.37;3.98;;;;;;;4.82;69.44;101277.09;442825;117;923105;-75
2021/12/15 03:05:54;;;;;;;3.58;3.28;;;;;;;4.82;69.39;101277.09;443379;116;922561;-76
2021/12/15 03:07:05;;;;;;;3.59;3.29;;;;;;;4.81;69.42;101274.54;442791;118;922705;-76
2021/12/15 03:08:12;;;;;;;3.17;2.96;;;;;;;4.81;69.42;101271.84;442799;117;922560;-74
2021/12/15 03:15:50;;;;;;;3.52;3.25;;;;;;;4.82;69.39;101276.24;443267;116;922573;-75
2021/12/15 03:16:55;;;;;;;3.97;3.63;;;;;;;4.82;69.42;101282.49;438546;119;922711;-76
2021/12/15 03:18:05;;;;;;;3.32;3.04;;;;;;;4.81;69.40;101272.69;438590;118;922800;-75
2021/12/15 03:19:09;;;;;;;3.75;3.48;;;;;;;4.80;69.39;101276.39;442182;118;922673;-76
2021/12/15 03:20:16;;;;;;;4.03;3.28;;;;;;;4.80;69.35;101273.69;437235;120;922671;-75
2021/12/15 03:21:25;;;;;;;3.63;3.31;;;;;;;4.80;69.32;101267.44;438191;118;922674;-76
2021/12/15 03:22:30;;;;;;;4.15;3.75;;;;;;;4.79;69.40;101272.02;442324;116;922739;-74
2021/12/15 03:23:52;;;;;;;4.01;3.67;;;;;;;4.80;69.37;101280.95;442894;118;922856;-76
2021/12/15 03:24:53;;;;;;;;;;;;;;;4.80;69.39;101275.55;425420;123;922627;-75
2021/12/15 03:25:58;;;;;;;5.61;4.23;;;;;;;4.79;69.31;101274.73;443518;117;922377;-75
2021/12/15 03:27:11;;;;;;;4.65;4.18;;;;;;;4.77;69.37;101275.88;443949;117;922874;-75
2021/12/15 03:34:37;;;;;;;4.80;4.27;;;;;;;4.69;69.60;101259.61;443376;117;922598;-76
2021/12/15 03:36:10;;;;;;;4.76;4.32;;;;;;;4.68;69.63;101266.05;444304;117;922555;-75
2021/12/15 03:37:26;;;;;;;4.91;4.32;;;;;;;4.66;69.68;101257.24;442977;118;922643;-75
2021/12/15 03:38:31;;;;;;;5.55;5.05;;;;;;;4.66;69.68;101260.80;444544;116;923198;-75
2021/12/15 03:39:40;;;;;;;5.72;5.13;;;;;;;4.66;69.72;101257.24;442352;117;922631;-74
2021/12/15 03:40:43;;;;;;;6.03;5.02;;;;;;;4.66;69.79;101246.44;443498;118;922583;-76
2021/12/15 03:41:56;;;;;;;4.81;4.22;;;;;;;4.67;69.84;101251.69;442983;117;922611;-77
2021/12/15 03:42:58;;;;;;;5.43;4.86;;;;;;;4.69;69.88;101251.50;442829;117;922706;-75
2021/12/15 03:44:04;;;;;;;5.22;4.14;;;;;;;4.70;69.87;101250.50;442740;117;922594;-75
2021/12/15 03:45:11;;;;;;;4.92;4.35;;;;;;;4.71;69.87;101250.35;444159;117;922877;-76
2021/12/15 03:46:16;;;;;;;5.14;3.94;;;;;;;4.74;69.80;101260.82;443169;116;922704;-75
2021/12/15 03:47:23;;;;;;;5.50;4.94;;;;;;;4.75;69.83;101254.42;443630;117;923270;-75
2021/12/15 03:48:29;;;;;;;5.24;4.66;;;;;;;4.78;69.78;101258.67;450187;116;923022;-75
2021/12/15 03:49:33;;;;;;;6.87;5.97;;;;;;;4.79;69.77;101252.27;450355;116;923007;-75
2021/12/15 03:50:37;;;;;;;7.06;5.20;;;;;;;4.82;69.76;101254.63;447470;116;922642;-75
2021/12/15 03:51:41;;;;;;;5.41;4.89;;;;;;;4.83;69.71;101251.77;450529;116;923021;-76
2021/12/15 03:52:51;;;;;;;5.67;5.17;;;;;;;4.84;69.67;101252.62;444391;117;923431;-76
2021/12/15 03:53:51;;;;;;;5.96;4.73;;;;;;;4.85;69.59;101257.02;440490;119;930717;-76
2021/12/15 03:54:55;;;;;;;5.32;4.79;;;;;;;4.84;69.57;101253.47;448791;115;923017;-75
2021/12/15 03:56:01;;;;;;;5.24;4.64;;;;;;;4.84;69.52;101253.47;443151;118;923042;-76
2021/12/15 03:57:05;;;;;;;4.86;4.39;;;;;;;4.85;69.54;101254.32;444523;117;922699;-76
2021/12/15 03:58:12;;;;;;;4.57;4.17;;;;;;;4.83;69.43;101257.17;444352;117;923103;-75
2021/12/15 03:59:18;;;;;;;5.62;4.51;;;;;;;4.82;69.41;101257.33;445183;117;922447;-76
2021/12/15 04:00:23;;;;;;;4.99;4.59;;;;;;;4.79;69.45;101254.97;446715;117;923314;-76
2021/12/15 04:01:27;;;;;;;4.84;4.33;;;;;;;4.77;69.48;101262.37;441846;119;922854;-75
2021/12/15 04:02:31;;;;;;;4.83;4.42;;;;;;;4.74;69.55;101260.01;440164;119;922555;-76
2021/12/15 04:03:38;;;;;;;5.15;4.62;;;;;;;4.73;69.63;101263.70;445733;115;922764;-76
2021/12/15 04:04:43;;;;;;;5.49;4.99;;;;;;;4.71;69.73;101250.35;450255;116;922616;-74
2021/12/15 04:05:47;;;;;;;5.48;4.95;;;;;;;4.71;69.65;101261.16;441914;118;922823;-75
2021/12/15 04:06:50;;;;;;;5.24;4.31;;;;;;;4.70;69.71;101250.50;442045;119;930581;-75
2021/12/15 04:07:54;;;;;;;5.23;4.76;;;;;;;4.69;69.75;101244.25;446100;116;923095;-75
2021/12/15 04:08:58;;;;;;;5.95;5.35;;;;;;;4.68;69.72;101239.89;441837;117;923085;-75
2021/12/15 04:10:05;;;;;;;5.75;5.19;;;;;;;4.67;69.81;101231.93;442301;118;922713;-75
2021/12/15 04:11:12;;;;;;;6.06;5.42;;;;;;;4.66;69.86;101235.64;450055;116;922662;-75
2021/12/15 04:12:15;;;;;;;5.35;4.85;;;;;;;4.61;69.83;101231.56;444940;118;923026;-76
2021/12/15 04:13:19;;;;;;;6.19;5.60;;;;;;;4.57;69.93;101230.20;440790;117;922552;-76
2021/12/15 04:14:28;;;;;;;5.86;5.36;;;;;;;4.56;70.06;101238.45;452231;115;930542;-76
2021/12/15 04:15:30;;;;;;;6.55;5.62;;;;;;;4.56;70.19;101236.61;450088;116;930406;-76
2021/12/15 04:17:38;;;;;;;6.10;5.34;;;;;;;4.60;70.29;101242.52;449645;116;922456;-75
2021/12/15 04:18:42;;;;;;;7.13;6.42;;;;;;;4.60;70.25;101240.67;449567;116;922573;-74
2021/12/15 04:19:45;;;;;;;8.55;6.70;;;;;;;4.59;70.10;101246.23;447970;116;930589;-75
2021/12/15 04:20:50;;;;;;;8.18;7.30;;;;;;;4.55;70.15;101243.01;451237;114;922515;-76
2021/12/15 04:21:54;;;;;;;10.03;8.57;;;;;;;4.52;70.25;101246.01;449873;116;930503;-75
2021/12/15 04:22:59;;;;;;;11.05;9.07;;;;;;;4.50;70.42;101247.20;450441;116;930754;-75
2021/12/15 04:24:03;;;;;;;11.31;9.51;;;;;;;4.51;70.54;101244.34;449958;116;922950;-75
2021/12/15 04:25:14;;;;;;;14.48;11.14;;;;;;;4.52;70.55;101251.41;450635;115;922474;-75
2021/12/15 04:26:18;;;;;;;14.60;11.97;;;;;;;4.52;70.49;101245.20;449577;116;922875;-75
2021/12/15 04:27:21;;;;;;;15.78;12.35;;;;;;;4.50;70.48;101245.34;448137;117;922630;-75
2021/12/15 04:28:28;;;;;;;15.19;12.37;;;;;;;4.49;70.62;101250.89;448387;117;930301;-75
2021/12/15 04:29:32;;;;;;;20.78;13.54;;;;;;;4.49;70.67;101248.20;448510;116;922550;-77
2021/12/15 04:30:39;;;;;;;20.63;13.58;;;;;;;4.49;70.74;101256.30;448187;116;922783;-75
2021/12/15 04:31:46;;;;;;;24.69;14.99;;;;;;;4.50;70.83;101264.25;448241;117;922507;-75
2021/12/15 04:32:50;;;;;;;24.38;15.86;;;;;;;4.53;70.87;101257.66;448365;117;922540;-74
2021/12/15 04:34:00;;;;;;;25.60;15.69;;;;;;;4.54;70.92;101253.97;448445;117;922624;-75
2021/12/15 04:35:04;;;;;;;13.06;10.71;;;;;;;4.56;70.94;101255.52;453063;114;930623;-76
2021/12/15 04:36:10;;;;;;;11.45;10.11;;;;;;;4.60;70.95;101256.03;455058;113;922545;-74
2021/12/15 04:37:14;;;;;;;10.66;9.12;;;;;;;4.62;70.92;101256.73;447700;117;930133;-74
2021/12/15 04:38:18;;;;;;;7.91;7.06;;;;;;;4.64;70.87;101262.80;445624;116;923266;-76
2021/12/15 04:39:24;;;;;;;7.70;6.91;;;;;;;4.66;70.82;101257.24;445502;116;930507;-74
2021/12/15 04:40:28;;;;;;;7.01;6.31;;;;;;;4.66;70.73;101260.80;449131;117;923478;-76
2021/12/15 04:41:32;;;;;;;7.11;6.48;;;;;;;4.66;70.67;101257.24;448585;117;922918;-74
2021/12/15 04:42:38;;;;;;;7.43;6.60;;;;;;;4.63;70.60;101257.58;449054;117;930588;-75
2021/12/15 04:43:43;;;;;;;7.01;6.40;;;;;;;4.60;70.69;101256.87;448918;115;922553;-75
2021/12/15 04:44:47;;;;;;;7.56;6.81;;;;;;;4.60;70.73;101253.33;449218;117;922842;-76
2021/12/15 04:45:51;;;;;;;8.59;6.84;;;;;;;4.61;70.83;101257.73;448980;115;922650;-75
2021/12/15 04:47:03;;;;;;;7.78;6.19;;;;;;;4.61;70.80;101261.28;448645;116;930578;-75
2021/12/15 04:48:07;;;;;;;7.44;6.75;;;;;;;4.63;70.91;101270.05;448455;117;922557;-75
2021/12/15 04:49:14;;;;;;;8.90;6.68;;;;;;;4.65;70.87;101274.45;448521;117;922736;-77
2021/12/15 04:50:20;;;;;;;6.96;6.34;;;;;;;4.64;70.77;101276.30;448474;115;922574;-75
2021/12/15 04:51:24;;;;;;;7.31;6.61;;;;;;;4.63;70.77;101271.93;448972;116;922991;-75
2021/12/15 04:52:30;;;;;;;7.72;7.02;;;;;;;4.63;70.89;101274.63;449044;117;922555;-74
2021/12/15 04:53:37;;;;;;;7.07;6.39;;;;;;;4.63;70.91;101272.75;449070;117;922993;-74
2021/12/15 04:54:41;;;;;;;6.99;6.39;;;;;;;4.66;70.98;101270.75;448603;115;923122;-74
2021/12/15 04:55:45;;;;;;;6.96;6.26;;;;;;;4.66;70.80;101274.30;448763;116;922692;-75
2021/12/15 04:56:48;;;;;;;8.20;6.61;;;;;;;4.66;70.84;101278.85;449480;117;922599;-75
2021/12/15 04:57:52;;;;;;;7.01;6.24;;;;;;;4.65;70.88;101275.30;446927;116;930416;-75
2021/12/15 04:58:55;;;;;;;6.75;6.06;;;;;;;4.67;70.99;101286.80;454364;113;922923;-76
2021/12/15 04:59:59;;;;;;;6.54;5.94;;;;;;;4.68;70.91;101288.50;454123;114;922799;-75
2021/12/15 05:01:06;;;;;;;6.55;5.59;;;;;;;4.67;70.86;101284.10;454105;113;922631;-75
2021/12/15 05:02:11;;;;;;;7.11;6.49;;;;;;;4.69;70.90;101287.47;452678;115;922542;-75
2021/12/15 05:03:15;;;;;;;6.60;6.00;;;;;;;4.70;70.94;101282.92;452394;115;922524;-74
2021/12/15 05:04:19;;;;;;;7.33;6.34;;;;;;;4.71;70.98;101285.47;448850;115;923056;-75
2021/12/15 05:05:24;;;;;;;7.08;6.37;;;;;;;4.74;70.96;101281.62;453039;113;923003;-76
2021/12/15 05:06:28;;;;;;;7.26;6.62;;;;;;;4.76;70.93;101279.58;444781;117;930634;-75
2021/12/15 05:07:32;;;;;;;8.21;7.43;;;;;;;4.78;70.92;101285.69;452756;113;922725;-75
2021/12/15 05:08:37;;;;;;;6.69;6.04;;;;;;;4.80;70.92;101284.50;453205;114;930577;-76
2021/12/15 05:09:41;;;;;;;6.90;6.24;;;;;;;4.82;70.84;101285.20;453868;115;922698;-75
2021/12/15 05:10:44;;;;;;;7.45;6.76;;;;;;;4.85;70.81;101284.05;452677;116;922820;-79
2021/12/15 05:11:50;;;;;;;8.04;7.28;;;;;;;4.84;70.75;101291.30;454042;113;922591;-76
2021/12/15 05:12:53;;;;;;;7.64;6.88;;;;;;;4.86;70.71;101283.86;453579;114;930653;-75
2021/12/15 05:13:57;;;;;;;7.41;6.79;;;;;;;4.87;70.68;101287.41;453978;113;922621;-76
2021/12/15 05:15:02;;;;;;;6.86;6.26;;;;;;;4.86;70.59;101286.56;453657;115;922592;-74
2021/12/15 05:16:07;;;;;;;6.59;5.98;;;;;;;4.88;70.62;101281.01;447149;118;930753;-76
2021/12/15 05:17:11;;;;;;;7.39;6.36;;;;;;;4.87;70.57;101282.86;449057;113;923090;-75
2021/12/15 05:18:15;;;;;;;7.03;6.36;;;;;;;4.87;70.53;101276.61;454562;113;922671;-76
2021/12/15 05:19:20;;;;;;;7.04;6.44;;;;;;;4.85;70.46;101273.23;462697;111;923227;-75
2021/12/15 05:20:25;;;;;;;7.67;6.97;;;;;;;4.81;70.40;101271.84;460248;113;922632;-76
2021/12/15 05:21:30;;;;;;;8.14;6.99;;;;;;;4.78;70.48;101277.58;461643;111;923209;-75
2021/12/15 05:22:35;;;;;;;8.01;6.67;;;;;;;4.76;70.61;101282.28;462040;111;923252;-76
2021/12/15 05:23:40;;;;;;;6.94;6.33;;;;;;;4.75;70.67;101280.58;462090;111;923190;-74
2021/12/15 05:24:43;;;;;;;8.03;7.23;;;;;;;4.75;70.75;101285.98;460870;113;923174;-75
2021/12/15 05:25:48;;;;;;;7.88;7.14;;;;;;;4.74;70.76;101290.53;460969;111;922963;-75
2021/12/15 05:26:52;;;;;;;7.79;6.82;;;;;;;4.74;70.84;101300.53;456548;113;922955;-75
2021/12/15 05:27:56;;;;;;;7.26;6.57;;;;;;;4.75;70.90;101296.79;456715;114;922904;-77
2021/12/15 05:29:00;;;;;;;9.94;6.86;;;;;;;4.74;70.93;101293.23;457197;114;930544;-76
2021/12/15 05:30:06;;;;;;;8.11;7.34;;;;;;;4.75;70.89;101300.34;456322;113;923185;-74
2021/12/15 05:31:10;;;;;;;7.84;6.60;;;;;;;4.75;70.90;101299.49;457847;114;922823;-75
2021/12/15 05:32:18;;;;;;;7.75;7.05;;;;;;;4.73;70.84;101302.38;457560;113;922604;-76
2021/12/15 05:33:22;;;;;;;7.42;6.48;;;;;;;4.70;70.81;101293.72;457795;114;922675;-76
2021/12/15 05:34:26;;;;;;;7.81;7.17;;;;;;;4.68;70.90;101307.41;457460;113;922544;-76
2021/12/15 05:35:33;;;;;;;8.48;7.68;;;;;;;4.66;70.99;101313.97;457713;113;922600;-75
2021/12/15 05:36:36;;;;;;;8.42;7.55;;;;;;;4.65;71.10;101304.16;457483;113;931044;-74